createdAt,value
2023-04-15T00:00:20.649Z,4.73
2023-04-15T00:03:22.935Z,8.37
2023-04-15T00:06:24.941Z,5.90
2023-04-15T00:09:26.654Z,9.73
2023-04-15T00:12:28.850Z,4.73
2023-04-15T00:15:30.646Z,6.33
2023-04-15T00:18:32.672Z,7.77
2023-04-15T00:21:34.374Z,5.10
2023-04-15T00:24:36.309Z,6.03
2023-04-15T00:27:38.687Z,6.53
2023-04-15T00:30:40.441Z,6.50
2023-04-15T00:33:42.224Z,9.00
2023-04-15T00:36:44.659Z,11.93
2023-04-15T00:39:47.230Z,7.40
2023-04-15T00:46:21.288Z,5.60
2023-04-15T00:49:23.739Z,7.67
2023-04-15T00:52:26.066Z,6.90
2023-04-15T00:55:28.186Z,5.33
2023-04-15T00:58:30.024Z,6.67
2023-04-15T01:01:32.777Z,7.70
2023-04-15T01:04:35.836Z,7.20
2023-04-15T01:07:37.733Z,5.43
2023-04-15T01:10:39.584Z,9.33
2023-04-15T01:13:41.696Z,6.77
2023-04-15T01:16:45.228Z,6.60
2023-04-15T01:19:47.509Z,6.40
2023-04-15T01:22:49.977Z,7.57
2023-04-15T01:25:53.380Z,6.37
2023-04-15T01:28:56.242Z,8.23
2023-04-15T01:31:59.340Z,7.47
2023-04-15T01:35:02.801Z,6.20
2023-04-15T01:38:09.154Z,8.57
2023-04-15T01:41:13.912Z,5.13
2023-04-15T01:44:15.677Z,6.30
2023-04-15T01:47:17.610Z,7.93
2023-04-15T01:50:20.448Z,6.73
2023-04-15T01:53:23.243Z,7.50
2023-04-15T01:56:25.328Z,12.23
2023-04-15T01:59:27.293Z,7.03
2023-04-15T02:02:29.736Z,6.13
2023-04-15T02:05:31.518Z,11.53
2023-04-15T02:08:33.547Z,6.97
2023-04-15T02:11:37.152Z,8.00
2023-04-15T02:14:39.654Z,8.90
2023-04-15T02:17:45.766Z,8.50
2023-04-15T02:20:52.721Z,6.87
2023-04-15T02:23:54.526Z,7.23
2023-04-15T02:26:56.788Z,6.47
2023-04-15T02:29:58.565Z,6.60
2023-04-15T02:33:01.955Z,8.03
2023-04-15T02:36:05.028Z,6.70
2023-04-15T02:39:18.921Z,8.40
2023-04-15T02:42:22.143Z,10.90
2023-04-15T02:48:36.848Z,9.10
2023-04-15T02:51:39.391Z,6.93
2023-04-15T02:54:41.075Z,8.27
2023-04-15T02:57:42.898Z,6.23
2023-04-15T03:00:45.914Z,7.37
2023-04-15T03:03:47.741Z,10.93
2023-04-15T03:06:49.478Z,10.70
2023-04-15T03:09:51.601Z,11.87
2023-04-15T03:12:53.409Z,7.10
2023-04-15T03:15:58.164Z,9.60
2023-04-15T03:19:00.604Z,12.57
2023-04-15T03:22:02.486Z,8.67
2023-04-15T03:25:04.783Z,9.87
2023-04-15T03:28:08.122Z,8.37
2023-04-15T03:31:10.007Z,8.73
2023-04-15T03:34:11.844Z,7.23
2023-04-15T03:37:13.536Z,9.50
2023-04-15T03:40:15.685Z,9.37
2023-04-15T03:43:17.374Z,9.43
2023-04-15T03:46:19.157Z,10.77
2023-04-15T03:49:22.915Z,15.97
2023-04-15T03:52:24.659Z,9.33
2023-04-15T03:55:27.046Z,9.47
2023-04-15T03:58:28.752Z,7.00
2023-04-15T04:08:32.806Z,8.93
2023-04-15T04:15:18.458Z,9.50
2023-04-15T04:18:31.476Z,9.23
2023-04-15T04:25:00.753Z,7.23
2023-04-15T04:28:03.234Z,9.03
2023-04-15T04:31:05.783Z,10.97
2023-04-15T04:34:08.031Z,9.87
2023-04-15T04:37:10.644Z,9.90
2023-04-15T04:40:13.294Z,10.30
2023-04-15T04:43:16.217Z,11.07
2023-04-15T04:46:18.716Z,8.93
2023-04-15T04:49:21.087Z,9.93
2023-04-15T04:52:23.910Z,9.83
2023-04-15T04:55:33.382Z,11.77
2023-04-15T05:01:51.361Z,9.13
2023-04-15T05:04:54.451Z,9.63
2023-04-15T05:18:25.542Z,10.27
2023-04-15T05:24:57.837Z,9.77
2023-04-15T05:28:00.396Z,8.83
2023-04-15T05:31:02.195Z,10.17
2023-04-15T05:34:05.192Z,11.83
2023-04-15T05:37:06.940Z,11.93
2023-04-15T05:40:10.486Z,11.63
2023-04-15T05:43:14.254Z,10.73
2023-04-15T05:46:16.539Z,11.10
2023-04-15T05:49:18.683Z,12.70
2023-04-15T05:52:21.439Z,13.23
2023-04-15T05:55:23.758Z,9.53
2023-04-15T05:58:26.339Z,11.40
2023-04-15T06:01:28.977Z,11.50
2023-04-15T06:04:31.319Z,12.37
2023-04-15T06:07:34.460Z,12.13
2023-04-15T06:10:40.629Z,11.20
2023-04-15T06:13:43.101Z,12.63
2023-04-15T06:16:45.589Z,13.20
2023-04-15T06:19:48.359Z,11.90
2023-04-15T06:22:51.738Z,14.30
2023-04-15T06:25:56.889Z,14.40
2023-04-15T06:28:59.680Z,11.43
2023-04-15T06:32:05.699Z,15.13
2023-04-15T06:35:11.956Z,18.30
2023-04-15T06:38:20.419Z,13.43
2023-04-15T06:41:25.718Z,13.53
2023-04-15T06:44:33.284Z,15.93
2023-04-15T06:51:26.581Z,14.60
2023-04-15T06:54:29.326Z,15.20
2023-04-15T06:57:35.141Z,13.37
2023-04-15T07:00:40.890Z,13.10
2023-04-15T07:03:43.519Z,12.90
2023-04-15T07:06:46.463Z,14.73
2023-04-15T07:09:50.382Z,13.73
2023-04-15T07:12:52.899Z,15.37
2023-04-15T07:46:21.952Z,17.37
2023-04-15T07:49:29.729Z,10.77
2023-04-15T07:52:41.905Z,9.20
2023-04-15T07:55:47.539Z,11.07
2023-04-15T07:58:50.044Z,8.43
2023-04-15T08:01:52.471Z,8.57
2023-04-15T08:04:58.620Z,9.33
2023-04-15T08:11:26.906Z,7.23
2023-04-15T08:14:35.192Z,7.57
2023-04-15T08:21:06.532Z,8.53
2023-04-15T08:24:11.780Z,6.70
2023-04-15T08:27:17.639Z,8.07
2023-04-15T08:30:24.050Z,7.07
2023-04-15T08:33:32.457Z,7.70
2023-04-15T08:43:55.173Z,8.93
2023-04-15T08:50:22.916Z,10.10
2023-04-15T08:56:39.178Z,9.70
2023-04-15T08:59:42.808Z,7.93
2023-04-15T09:02:44.840Z,10.90
2023-04-15T09:05:46.963Z,9.63
2023-04-15T09:22:24.491Z,9.27
2023-04-15T09:28:49.851Z,8.30
2023-04-15T09:31:54.750Z,9.30
2023-04-15T09:34:57.088Z,8.80
2023-04-15T09:38:10.992Z,8.80
2023-04-15T09:41:23.252Z,8.63
2023-04-15T09:44:26.766Z,8.67
2023-04-15T10:28:11.652Z,9.07
2023-04-15T10:42:22.812Z,7.60
2023-04-15T10:45:33.565Z,7.73
2023-04-15T10:48:38.118Z,8.23
2023-04-15T10:51:45.171Z,8.50
2023-04-15T11:05:54.158Z,7.97
2023-04-15T11:09:03.747Z,6.83
2023-04-15T11:23:14.800Z,7.67
2023-04-15T11:50:34.622Z,5.37
2023-04-15T12:00:36.838Z,5.27
2023-04-15T12:24:40.067Z,4.13
2023-04-15T12:27:46.522Z,5.47
2023-04-15T12:30:58.778Z,5.47
2023-04-15T12:34:02.320Z,4.27
2023-04-15T12:40:39.134Z,5.07
2023-04-15T12:43:45.706Z,7.40
2023-04-15T12:46:54.146Z,4.03
2023-04-15T12:49:58.251Z,3.90
2023-04-15T13:00:02.569Z,4.87
2023-04-15T13:03:07.051Z,3.90
2023-04-15T13:06:13.014Z,3.83
2023-04-15T13:09:18.034Z,5.60
2023-04-15T13:12:20.754Z,18.57
2023-04-15T13:15:31.253Z,3.20
2023-04-15T13:18:34.790Z,3.77
2023-04-15T13:21:41.264Z,4.13
2023-04-15T13:28:38.630Z,2.63
2023-04-15T13:31:47.996Z,3.20
2023-04-15T13:34:51.507Z,5.63
2023-04-15T13:37:57.559Z,2.83
2023-04-15T13:40:59.987Z,4.63
2023-04-15T13:44:06.925Z,4.93
2023-04-15T13:47:17.690Z,6.33
2023-04-15T14:04:07.507Z,3.80
2023-04-15T14:07:09.964Z,3.03
2023-04-15T14:10:11.842Z,3.53
2023-04-15T14:13:19.799Z,3.60
2023-04-15T14:16:21.825Z,3.77
2023-04-15T14:19:24.620Z,7.63
2023-04-15T14:22:33.543Z,2.60
2023-04-15T14:25:39.561Z,3.13
2023-04-15T14:28:42.950Z,2.20
2023-04-15T14:32:10.970Z,5.33
2023-04-15T14:35:07.098Z,4.37
2023-04-15T14:38:11.305Z,7.70
2023-04-15T14:41:13.555Z,3.07
2023-04-15T14:44:16.161Z,6.73
2023-04-15T14:47:18.235Z,4.17
2023-04-15T14:50:20.320Z,5.67
2023-04-15T14:53:22.251Z,2.77
2023-04-15T14:56:23.933Z,4.07
2023-04-15T14:59:26.222Z,3.70
2023-04-15T15:02:38.426Z,6.50
2023-04-15T15:05:44.553Z,6.83
2023-04-15T15:08:47.670Z,5.80
2023-04-15T15:11:50.840Z,13.67
2023-04-15T15:14:52.977Z,11.03
2023-04-15T15:17:54.903Z,4.97
2023-04-15T15:20:56.838Z,3.97
2023-04-15T15:23:58.622Z,6.33
2023-04-15T15:27:02.089Z,3.83
2023-04-15T15:30:06.985Z,3.67
2023-04-15T15:33:09.117Z,6.30
2023-04-15T15:36:19.894Z,4.87
2023-04-15T15:39:24.482Z,8.03
2023-04-15T15:42:30.257Z,6.77
2023-04-15T15:45:33.142Z,3.37
2023-04-15T15:48:36.040Z,5.53
2023-04-15T15:51:38.106Z,5.97
2023-04-15T15:54:41.945Z,4.20
2023-04-15T15:57:44.466Z,4.23
2023-04-15T16:00:46.634Z,3.27
2023-04-15T16:03:49.556Z,3.73
2023-04-15T16:06:59.949Z,5.23
2023-04-15T16:10:01.973Z,5.03
2023-04-15T16:13:03.896Z,3.63
2023-04-15T16:16:06.083Z,5.47
2023-04-15T16:19:10.815Z,4.87
2023-04-15T16:22:16.440Z,4.03
2023-04-15T16:46:23.388Z,4.07
2023-04-15T16:49:25.610Z,4.47
2023-04-15T16:52:28.899Z,6.33
2023-04-15T16:55:30.904Z,8.87
2023-04-15T16:58:32.883Z,4.17
2023-04-15T17:01:35.069Z,2.80
2023-04-15T17:04:37.035Z,6.63
2023-04-15T17:07:38.974Z,4.27
2023-04-15T17:10:40.777Z,5.23
2023-04-15T17:13:42.599Z,5.60
2023-04-15T17:16:44.369Z,7.20
2023-04-15T17:19:48.400Z,4.93
2023-04-15T17:22:50.365Z,6.77
2023-04-15T17:25:52.212Z,5.07
2023-04-15T17:28:54.022Z,3.30
2023-04-15T17:31:55.915Z,10.20
2023-04-15T17:34:57.797Z,4.13
2023-04-15T17:37:59.652Z,6.40
2023-04-15T17:41:01.480Z,5.50
2023-04-15T17:44:03.561Z,7.93
2023-04-15T17:47:05.695Z,5.60
2023-04-15T17:50:08.828Z,5.33
2023-04-15T17:53:12.153Z,7.73
2023-04-15T17:56:17.111Z,12.00
2023-04-15T17:59:25.027Z,10.53
2023-04-15T18:02:27.471Z,7.10
2023-04-15T18:05:30.223Z,5.00
2023-04-15T18:08:32.062Z,5.87
2023-04-15T18:11:34.918Z,4.63
2023-04-15T18:14:36.772Z,8.10
2023-04-15T18:17:40.314Z,11.07
2023-04-15T18:20:42.064Z,11.83
2023-04-15T18:23:50.333Z,5.93
2023-04-15T18:26:55.181Z,6.67
2023-04-15T18:29:57.068Z,6.27
2023-04-15T18:32:58.981Z,5.77
2023-04-15T18:36:02.451Z,6.60
2023-04-15T18:39:04.808Z,5.80
2023-04-15T18:42:07.085Z,9.37
2023-04-15T18:45:09.294Z,5.47
2023-04-15T18:48:11.287Z,6.67
2023-04-15T18:51:13.125Z,7.97
2023-04-15T18:54:15.001Z,5.37
2023-04-15T18:57:22.792Z,5.23
2023-04-15T19:00:27.595Z,9.30
2023-04-15T19:03:29.470Z,5.20
2023-04-15T19:06:32.187Z,7.40
2023-04-15T19:09:35.586Z,3.93
2023-04-15T19:12:37.469Z,5.70
2023-04-15T19:15:39.350Z,4.07
2023-04-15T19:18:42.969Z,6.60
2023-04-15T19:21:47.712Z,7.90
2023-04-15T19:24:51.867Z,4.97
2023-04-15T19:27:53.674Z,7.53
2023-04-15T19:30:55.745Z,5.47
2023-04-15T19:33:57.941Z,6.00
2023-04-15T19:36:59.930Z,6.23
2023-04-15T19:40:02.051Z,5.13
2023-04-15T19:43:03.996Z,5.70
2023-04-15T19:46:06.765Z,8.73
2023-04-15T19:49:08.771Z,8.13
2023-04-15T19:52:10.722Z,8.27
2023-04-15T19:55:15.611Z,5.57
2023-04-15T19:58:17.493Z,9.00
2023-04-15T20:01:20.524Z,5.13
2023-04-15T20:04:22.760Z,6.53
2023-04-15T20:07:24.837Z,6.47
2023-04-15T20:10:27.151Z,5.40
2023-04-15T20:13:31.542Z,8.27
2023-04-15T20:16:37.466Z,10.20
2023-04-15T20:19:39.443Z,8.17
2023-04-15T20:22:41.584Z,6.93
2023-04-15T20:25:43.859Z,9.20
2023-04-15T20:28:45.732Z,5.73
2023-04-15T20:31:50.432Z,6.83
2023-04-15T20:34:52.560Z,6.13
2023-04-15T20:37:54.685Z,6.57
2023-04-15T20:40:59.668Z,9.53
2023-04-15T20:44:04.020Z,6.67
2023-04-15T20:47:06.872Z,11.63
2023-04-15T20:50:10.937Z,8.83
2023-04-15T20:53:12.731Z,10.97
2023-04-15T20:56:14.531Z,10.90
2023-04-15T20:59:16.363Z,9.17
2023-04-15T21:02:18.546Z,6.30
2023-04-15T21:05:20.533Z,8.83
2023-04-15T21:08:29.092Z,10.47
2023-04-15T21:11:53.253Z,8.10
2023-04-15T21:14:53.983Z,11.80
2023-04-15T21:17:55.908Z,8.97
2023-04-15T21:21:02.367Z,9.37
2023-04-15T21:24:04.295Z,10.23
2023-04-15T21:27:06.339Z,14.67
2023-04-15T21:30:08.498Z,10.23
2023-04-15T21:33:13.053Z,14.00
2023-04-15T21:36:15.779Z,10.63
2023-04-15T21:39:17.598Z,13.90
2023-04-15T21:42:19.436Z,17.10
2023-04-15T21:45:21.639Z,9.83
2023-04-15T21:48:23.518Z,15.00
2023-04-15T21:51:25.756Z,14.07
2023-04-15T21:54:28.375Z,18.67
2023-04-15T21:57:31.197Z,14.63
2023-04-15T22:00:34.121Z,17.27
2023-04-15T22:03:36.117Z,19.17
2023-04-15T22:06:38.367Z,13.07
2023-04-15T22:09:40.160Z,14.63
2023-04-15T22:12:42.279Z,16.77
2023-04-15T22:15:44.105Z,25.10
2023-04-15T22:18:46.004Z,13.10
2023-04-15T22:21:56.729Z,17.70
2023-04-15T22:24:58.561Z,18.27
2023-04-15T22:28:00.571Z,18.83
2023-04-15T22:31:02.682Z,22.03
2023-04-15T22:34:04.593Z,20.70
2023-04-15T22:37:07.325Z,15.00
2023-04-15T22:40:09.691Z,23.63
2023-04-15T22:43:11.560Z,14.87
2023-04-15T22:46:14.157Z,23.27
2023-04-15T22:49:16.243Z,18.27
2023-04-15T22:55:30.838Z,21.33
2023-04-15T22:58:32.642Z,17.07
2023-04-15T23:01:34.848Z,22.57
2023-04-15T23:04:36.851Z,23.50
2023-04-15T23:07:38.703Z,16.60
2023-04-15T23:10:40.459Z,23.27
2023-04-15T23:13:42.195Z,22.37
2023-04-15T23:16:43.939Z,20.97
2023-04-15T23:19:45.665Z,22.80
2023-04-15T23:22:47.570Z,22.83
2023-04-15T23:25:49.406Z,25.63
2023-04-15T23:28:51.156Z,22.90
2023-04-15T23:31:52.965Z,23.40
2023-04-15T23:34:54.735Z,23.20
2023-04-15T23:37:56.449Z,24.07
2023-04-15T23:40:58.944Z,19.50
2023-04-15T23:44:00.697Z,23.40
2023-04-15T23:47:02.469Z,19.50
2023-04-15T23:50:04.714Z,23.70
2023-04-15T23:53:06.436Z,24.03
2023-04-15T23:56:08.202Z,24.67
2023-04-15T23:59:10.121Z,19.77
